ěÝzenÝ letovÚho provozu ╚eskÚ republiky
Letiste: LKPJ Aktualizace: 21.01.2020 22:00:26  UTC
 METAR LKPJ 21.01. 22:00 ...
METAR LKPJ 212200Z AUTO 26003KT 210V310 9999 OVC009 M02/M03 Q1038=